Time;durP1;ratioP1;P1;durP2;ratioP2;P2;SDS_P1;SDS_P2;PMS_P1;PMS_P2;Temp;Humidity;BMP_temperature;BMP_pressure;BME280_temperature;BME280_humidity;BME280_pressure;Samples;Min_cycle;Max_cycle;Signal;HPM_P1;HPM_P2
2022/10/16 00:01:07;;;;;;;;;;;;;;;;;;5113496;28;1404;-74
2022/10/16 00:03:33;;;;;;;;;;;;;;;;;;5113089;28;1075;-73
2022/10/16 00:06:01;;;;;;;;;;;;;;;;;;5113092;28;786;-73
2022/10/16 00:08:27;;;;;;;;;;;;;;;;;;5113426;28;782;-73
2022/10/16 00:10:53;;;;;;;;;;;;;;;;;;5112915;28;1967;-73
2022/10/16 00:13:20;;;;;;;;;;;;;;;;;;5112458;28;892;-71
2022/10/16 00:15:46;;;;;;;;;;;;;;;;;;5112968;28;856;-73
2022/10/16 00:18:14;;;;;;;;;;;;;;;;;;5112515;28;1486;-72
2022/10/16 00:20:40;;;;;;;;;;;;;;;;;;5112891;28;754;-73
2022/10/16 00:23:08;;;;;;;;;;;;;;;;;;5112712;28;1281;-73
2022/10/16 00:25:34;;;;;;;;;;;;;;;;;;5112560;28;1098;-74
2022/10/16 00:28:00;;;;;;;;;;;;;;;;;;5111526;28;1119;-73
2022/10/16 00:30:27;;;;;;;;;;;;;;;;;;5111836;28;1977;-72
2022/10/16 00:32:53;;;;;;;;;;;;;;;;;;5112379;28;1419;-73
2022/10/16 00:35:20;;;;;;;;;;;;;;;;;;5112401;28;829;-73
2022/10/16 00:37:46;;;;;;;;;;;;;;;;;;5112444;28;1075;-73
2022/10/16 00:40:14;;;;;;;;;;;;;;;;;;5112516;28;876;-73
2022/10/16 00:42:40;;;;;;;;;;;;;;;;;;5112058;28;1420;-73
2022/10/16 00:45:06;;;;;;;;;;;;;;;;;;5112351;28;861;-73
2022/10/16 00:47:33;;;;;;;;;;;;;;;;;;5111994;28;1490;-73
2022/10/16 00:50:01;;;;;;;;;;;;;;;;;;5112373;28;1059;-73
2022/10/16 00:52:28;;;;;;;;;;;;;;;;;;5112117;28;1914;-73
2022/10/16 00:54:54;;;;;;;;;;;;;;;;;;5112327;28;1103;-73
2022/10/16 00:57:21;;;;;;;;;;;;;;;;;;5111370;28;1234;-76
2022/10/16 00:59:48;;;;;;;;;;;;;;;;;;5110220;27;1947;-71
2022/10/16 01:02:14;;;;;;;;;;;;;;;;;;5109814;28;1800;-73
2022/10/16 01:04:41;;;;;;;;;;;;;;;;;;5111944;28;1134;-76
2022/10/16 01:07:09;;;;;;;;;;;;;;;;;;5112096;28;806;-74
2022/10/16 01:09:36;;;;;;;;;;;;;;;;;;5112097;28;1070;-73
2022/10/16 01:12:05;;;;;;;;;;;;;;;;;;5111611;28;1971;-73
2022/10/16 01:14:36;;;;;;;;;;;;;;;;;;5111913;28;1168;-72
2022/10/16 01:17:04;;;;;;;;;;;;;;;;;;5112034;28;1520;-73
2022/10/16 01:19:37;;;;;;;;;;;;;;;;;;5110478;28;1292;-74
2022/10/16 01:22:03;;;;;;;;;;;;;;;;;;5110239;28;2424;-73
2022/10/16 01:24:32;;;;;;;;;;;;;;;;;;5099292;28;1545;-73
2022/10/16 01:27:12;;;;;;;;;;;;;;;;;;5091611;28;1099;-74
2022/10/16 01:29:40;;;;;;;;;;;;;;;;;;5108614;28;1561;-73
2022/10/16 01:32:08;;;;;;;;;;;;;;;;;;5111435;28;1914;-73
2022/10/16 01:34:34;;;;;;;;;;;;;;;;;;5111818;28;849;-73
2022/10/16 01:37:01;;;;;;;;;;;;;;;;;;5111812;28;1127;-73
2022/10/16 01:39:29;;;;;;;;;;;;;;;;;;5111743;28;1639;-73
2022/10/16 01:41:56;;;;;;;;;;;;;;;;;;5115403;28;1364;-72
2022/10/16 01:44:23;;;;;;;;;;;;;;;;;;5115829;28;1117;-74
2022/10/16 01:46:50;;;;;;;;;;;;;;;;;;5114504;28;1494;-73
2022/10/16 01:49:16;;;;;;;;;;;;;;;;;;5095163;28;1068;-74
2022/10/16 01:51:43;;;;;;;;;;;;;;;;;;5093659;28;1977;-73
2022/10/16 01:54:09;;;;;;;;;;;;;;;;;;5093819;28;1174;-74
2022/10/16 01:56:36;;;;;;;;;;;;;;;;;;5095220;28;845;-73
2022/10/16 01:59:03;;;;;;;;;;;;;;;;;;5095201;28;929;-73
2022/10/16 02:01:32;;;;;;;;;;;;;;;;;;5093224;28;1394;-73
2022/10/16 02:03:59;;;;;;;;;;;;;;;;;;5095164;28;984;-74
2022/10/16 02:06:25;;;;;;;;;;;;;;;;;;5094774;28;833;-73
2022/10/16 02:08:51;;;;;;;;;;;;;;;;;;5093968;28;1203;-73
2022/10/16 02:11:18;;;;;;;;;;;;;;;;;;5094437;28;1914;-76
2022/10/16 02:13:45;;;;;;;;;;;;;;;;;;5094774;28;884;-74
2022/10/16 02:16:11;;;;;;;;;;;;;;;;;;5094771;28;1060;-73
2022/10/16 02:18:39;;;;;;;;;;;;;;;;;;5112246;28;1471;-73
2022/10/16 02:21:07;;;;;;;;;;;;;;;;;;5114943;28;1306;-73
2022/10/16 02:23:35;;;;;;;;;;;;;;;;;;5114784;28;1066;-73
2022/10/16 02:26:01;;;;;;;;;;;;;;;;;;5115152;28;766;-75
2022/10/16 02:28:28;;;;;;;;;;;;;;;;;;5114952;28;1043;-74
2022/10/16 02:30:55;;;;;;;;;;;;;;;;;;5114826;28;1289;-73
2022/10/16 02:33:21;;;;;;;;;;;;;;;;;;5114603;28;2062;-72
2022/10/16 02:35:50;;;;;;;;;;;;;;;;;;5114903;27;995;-72
2022/10/16 02:38:16;;;;;;;;;;;;;;;;;;5114643;28;782;-72
2022/10/16 02:40:43;;;;;;;;;;;;;;;;;;5114905;28;786;-73
2022/10/16 02:43:09;;;;;;;;;;;;;;;;;;5114212;28;1292;-73
2022/10/16 02:45:35;;;;;;;;;;;;;;;;;;5113487;28;1340;-73
2022/10/16 02:48:01;;;;;;;;;;;;;;;;;;5114400;28;1372;-74
2022/10/16 02:50:28;;;;;;;;;;;;;;;;;;5114492;28;1071;-74
2022/10/16 02:52:55;;;;;;;;;;;;;;;;;;5113541;28;1914;-73
2022/10/16 02:55:21;;;;;;;;;;;;;;;;;;5114378;28;1150;-72
2022/10/16 02:57:47;;;;;;;;;;;;;;;;;;5114466;28;1126;-73
2022/10/16 03:00:14;;;;;;;;;;;;;;;;;;5114366;28;933;-73
2022/10/16 03:02:41;;;;;;;;;;;;;;;;;;5113950;28;1304;-73
2022/10/16 03:05:07;;;;;;;;;;;;;;;;;;5114223;28;1067;-73
2022/10/16 03:07:34;;;;;;;;;;;;;;;;;;5114312;28;1039;-72
2022/10/16 03:10:01;;;;;;;;;;;;;;;;;;5114378;28;1127;-72
2022/10/16 03:12:28;;;;;;;;;;;;;;;;;;5113733;28;1909;-73
2022/10/16 03:14:54;;;;;;;;;;;;;;;;;;5114265;28;1021;-73
2022/10/16 03:17:20;;;;;;;;;;;;;;;;;;5114730;27;1435;-72
2022/10/16 03:22:22;;;;;;;;;;;;;;;;;;5039146;28;1515;-74
2022/10/16 03:24:48;;;;;;;;;;;;;;;;;;5033214;28;1138;-75
2022/10/16 03:27:15;;;;;;;;;;;;;;;;;;5033530;28;891;-75
2022/10/16 03:29:42;;;;;;;;;;;;;;;;;;5031968;28;1125;-75
2022/10/16 03:32:08;;;;;;;;;;;;;;;;;;5032782;28;1983;-74
2022/10/16 03:34:34;;;;;;;;;;;;;;;;;;5033019;28;965;-75
2022/10/16 03:37:00;;;;;;;;;;;;;;;;;;5032911;28;1072;-75
2022/10/16 03:39:26;;;;;;;;;;;;;;;;;;5032961;28;934;-74
2022/10/16 03:41:53;;;;;;;;;;;;;;;;;;5032791;28;1303;-72
2022/10/16 03:44:21;;;;;;;;;;;;;;;;;;5015221;28;1132;-74
2022/10/16 03:46:47;;;;;;;;;;;;;;;;;;5032700;28;1474;-74
2022/10/16 03:49:13;;;;;;;;;;;;;;;;;;5032846;28;775;-75
2022/10/16 03:51:39;;;;;;;;;;;;;;;;;;5031060;28;1980;-75
2022/10/16 03:54:05;;;;;;;;;;;;;;;;;;5014963;28;1263;-74
2022/10/16 03:56:32;;;;;;;;;;;;;;;;;;5032643;28;1520;-75
2022/10/16 03:58:58;;;;;;;;;;;;;;;;;;5032889;28;902;-74
2022/10/16 04:01:25;;;;;;;;;;;;;;;;;;5030857;28;1321;-74
2022/10/16 04:03:52;;;;;;;;;;;;;;;;;;5031739;28;893;-74
2022/10/16 04:06:18;;;;;;;;;;;;;;;;;;5032494;28;1064;-75
2022/10/16 04:08:44;;;;;;;;;;;;;;;;;;5032619;28;949;-75
2022/10/16 04:11:10;;;;;;;;;;;;;;;;;;5032515;28;1415;-74
2022/10/16 04:13:37;;;;;;;;;;;;;;;;;;5031990;28;1983;-75
2022/10/16 04:16:03;;;;;;;;;;;;;;;;;;5032139;28;1442;-75
2022/10/16 04:18:30;;;;;;;;;;;;;;;;;;5032089;28;1068;-75
2022/10/16 04:20:57;;;;;;;;;;;;;;;;;;5032107;28;1356;-75
2022/10/16 04:23:23;;;;;;;;;;;;;;;;;;5031810;28;1127;-74
2022/10/16 04:25:49;;;;;;;;;;;;;;;;;;5032159;28;1135;-75
2022/10/16 04:28:16;;;;;;;;;;;;;;;;;;5032144;28;993;-75
2022/10/16 04:30:42;;;;;;;;;;;;;;;;;;5031852;28;1353;-74
2022/10/16 04:33:09;;;;;;;;;;;;;;;;;;5031545;28;1910;-74
2022/10/16 04:35:36;;;;;;;;;;;;;;;;;;5031921;28;898;-75
2022/10/16 04:38:03;;;;;;;;;;;;;;;;;;5031952;28;1086;-74
2022/10/16 04:40:29;;;;;;;;;;;;;;;;;;5032042;28;1385;-74
2022/10/16 04:42:55;;;;;;;;;;;;;;;;;;5031519;28;1068;-74
2022/10/16 04:45:21;;;;;;;;;;;;;;;;;;5031527;28;1575;-75
2022/10/16 04:47:47;;;;;;;;;;;;;;;;;;5031946;28;1088;-75
2022/10/16 04:50:13;;;;;;;;;;;;;;;;;;5046980;28;1424;-74
2022/10/16 04:52:41;;;;;;;;;;;;;;;;;;5031371;28;1894;-75
2022/10/16 04:55:08;;;;;;;;;;;;;;;;;;5030577;28;803;-75
2022/10/16 04:57:34;;;;;;;;;;;;;;;;;;5031730;28;1103;-75
2022/10/16 05:00:00;;;;;;;;;;;;;;;;;;5038420;28;1846;-74
2022/10/16 05:02:26;;;;;;;;;;;;;;;;;;5023208;28;1461;-74
2022/10/16 05:04:52;;;;;;;;;;;;;;;;;;5028665;28;1458;-74
2022/10/16 05:07:19;;;;;;;;;;;;;;;;;;5023155;28;1476;-74
2022/10/16 05:09:46;;;;;;;;;;;;;;;;;;5007405;28;1306;-72
2022/10/16 05:12:12;;;;;;;;;;;;;;;;;;5027136;28;1918;-72
2022/10/16 05:14:39;;;;;;;;;;;;;;;;;;5034656;28;1540;-75
2022/10/16 05:17:05;;;;;;;;;;;;;;;;;;5029376;28;1186;-74
2022/10/16 05:19:31;;;;;;;;;;;;;;;;;;5029339;28;1064;-75
2022/10/16 05:21:57;;;;;;;;;;;;;;;;;;5029241;28;1318;-74
2022/10/16 05:24:23;;;;;;;;;;;;;;;;;;5021834;28;1536;-74
2022/10/16 05:26:51;;;;;;;;;;;;;;;;;;5028087;28;1394;-75
2022/10/16 05:29:17;;;;;;;;;;;;;;;;;;5037665;28;1373;-74
2022/10/16 05:31:44;;;;;;;;;;;;;;;;;;5043654;28;1405;-74
2022/10/16 05:34:10;;;;;;;;;;;;;;;;;;5029296;28;1918;-75
2022/10/16 05:36:36;;;;;;;;;;;;;;;;;;5007748;28;1415;-74
2022/10/16 05:39:02;;;;;;;;;;;;;;;;;;5021418;28;1235;-75
2022/10/16 05:41:28;;;;;;;;;;;;;;;;;;5009642;28;1407;-74
2022/10/16 05:43:56;;;;;;;;;;;;;;;;;;5029097;28;930;-74
2022/10/16 05:46:22;;;;;;;;;;;;;;;;;;5028968;28;1446;-76
2022/10/16 05:48:48;;;;;;;;;;;;;;;;;;5044707;28;1140;-75
2022/10/16 05:51:15;;;;;;;;;;;;;;;;;;5032108;28;1792;-75
2022/10/16 05:53:41;;;;;;;;;;;;;;;;;;5027402;28;1910;-75
2022/10/16 05:56:09;;;;;;;;;;;;;;;;;;5009394;28;1071;-75
2022/10/16 05:58:36;;;;;;;;;;;;;;;;;;5017857;28;1430;-74
2022/10/16 06:01:04;;;;;;;;;;;;;;;;;;5012177;28;1387;-74
2022/10/16 06:03:30;;;;;;;;;;;;;;;;;;4999478;28;1409;-73
2022/10/16 06:05:56;;;;;;;;;;;;;;;;;;5020053;28;1405;-73
2022/10/16 06:08:23;;;;;;;;;;;;;;;;;;5009046;28;1576;-73
2022/10/16 06:10:49;;;;;;;;;;;;;;;;;;5028817;28;1432;-73
2022/10/16 06:13:15;;;;;;;;;;;;;;;;;;5023094;28;1918;-73
2022/10/16 06:15:42;;;;;;;;;;;;;;;;;;5023303;28;1208;-73
2022/10/16 06:18:10;;;;;;;;;;;;;;;;;;5028932;28;906;-74
2022/10/16 06:20:36;;;;;;;;;;;;;;;;;;5022144;28;1463;-73
2022/10/16 06:23:03;;;;;;;;;;;;;;;;;;5025486;28;1402;-74
2022/10/16 06:25:30;;;;;;;;;;;;;;;;;;5022925;28;1461;-73
2022/10/16 06:27:56;;;;;;;;;;;;;;;;;;5030124;28;1178;-72
2022/10/16 06:30:22;;;;;;;;;;;;;;;;;;5032245;28;1349;-73
2022/10/16 06:32:48;;;;;;;;;;;;;;;;;;5031758;28;1920;-73
2022/10/16 06:35:16;;;;;;;;;;;;;;;;;;5024533;28;1441;-74
2022/10/16 06:37:42;;;;;;;;;;;;;;;;;;5032401;28;1182;-74
2022/10/16 06:40:08;;;;;;;;;;;;;;;;;;5032177;28;1426;-74
2022/10/16 06:42:35;;;;;;;;;;;;;;;;;;5031195;28;1085;-73
2022/10/16 06:45:01;;;;;;;;;;;;;;;;;;5028884;28;1393;-74
2022/10/16 06:47:28;;;;;;;;;;;;;;;;;;5029320;28;1654;-73
2022/10/16 06:49:54;;;;;;;;;;;;;;;;;;5030620;28;1749;-74
2022/10/16 06:52:21;;;;;;;;;;;;;;;;;;5030165;28;1358;-73
2022/10/16 06:54:48;;;;;;;;;;;;;;;;;;5031838;28;1972;-72
2022/10/16 06:57:14;;;;;;;;;;;;;;;;;;5029793;28;1880;-73
2022/10/16 06:59:40;;;;;;;;;;;;;;;;;;5026322;28;1116;-74
2022/10/16 07:02:06;;;;;;;;;;;;;;;;;;5032063;28;1321;-74
2022/10/16 07:04:33;;;;;;;;;;;;;;;;;;5033072;28;1813;-75
2022/10/16 07:07:00;;;;;;;;;;;;;;;;;;5023541;28;1060;-73
2022/10/16 07:09:28;;;;;;;;;;;;;;;;;;5031617;28;950;-72
2022/10/16 07:11:54;;;;;;;;;;;;;;;;;;5029555;28;1357;-74
2022/10/16 07:14:21;;;;;;;;;;;;;;;;;;5031179;28;1934;-73
2022/10/16 07:16:47;;;;;;;;;;;;;;;;;;5022435;28;1746;-74
2022/10/16 07:19:15;;;;;;;;;;;;;;;;;;5031402;28;1151;-73
2022/10/16 07:21:41;;;;;;;;;;;;;;;;;;5030686;28;1391;-74
2022/10/16 07:24:08;;;;;;;;;;;;;;;;;;5023933;28;1504;-74
2022/10/16 07:26:36;;;;;;;;;;;;;;;;;;5029856;28;1813;-74
2022/10/16 07:29:03;;;;;;;;;;;;;;;;;;5020953;28;1520;-73
2022/10/16 07:31:29;;;;;;;;;;;;;;;;;;5022286;28;1817;-74
2022/10/16 07:33:55;;;;;;;;;;;;;;;;;;5019614;28;1981;-74
2022/10/16 07:36:22;;;;;;;;;;;;;;;;;;5030812;28;1080;-74
2022/10/16 07:38:48;;;;;;;;;;;;;;;;;;5031023;28;1071;-74
2022/10/16 07:41:15;;;;;;;;;;;;;;;;;;5009738;28;1821;-74
2022/10/16 07:43:45;;;;;;;;;;;;;;;;;;5017312;28;1754;-74
2022/10/16 07:46:11;;;;;;;;;;;;;;;;;;5025787;28;1437;-74
2022/10/16 07:48:38;;;;;;;;;;;;;;;;;;5003870;28;1770;-74
2022/10/16 07:51:04;;;;;;;;;;;;;;;;;;5030646;28;1415;-73
2022/10/16 07:53:31;;;;;;;;;;;;;;;;;;5030196;28;1911;-73
2022/10/16 07:56:00;;;;;;;;;;;;;;;;;;5028775;28;1507;-74
2022/10/16 07:58:27;;;;;;;;;;;;;;;;;;5024511;28;1152;-72
2022/10/16 08:00:54;;;;;;;;;;;;;;;;;;5024047;28;1848;-74
2022/10/16 08:03:20;;;;;;;;;;;;;;;;;;5031109;28;1551;-74
2022/10/16 08:05:46;;;;;;;;;;;;;;;;;;5030330;28;1667;-74
2022/10/16 08:08:13;;;;;;;;;;;;;;;;;;5030419;28;1580;-74
2022/10/16 08:10:39;;;;;;;;;;;;;;;;;;5025680;28;1541;-74
2022/10/16 08:13:05;;;;;;;;;;;;;;;;;;5031811;28;1927;-74
2022/10/16 08:15:32;;;;;;;;;;;;;;;;;;5046856;28;1508;-74
2022/10/16 08:18:00;;;;;;;;;;;;;;;;;;5032437;28;1060;-74
2022/10/16 08:20:27;;;;;;;;;;;;;;;;;;5031895;28;1297;-74
2022/10/16 08:22:53;;;;;;;;;;;;;;;;;;5031981;28;865;-74
2022/10/16 08:25:20;;;;;;;;;;;;;;;;;;5047459;28;1286;-74
2022/10/16 08:27:46;;;;;;;;;;;;;;;;;;5047592;28;1147;-74
2022/10/16 08:30:12;;;;;;;;;;;;;;;;;;5032238;28;1320;-74
2022/10/16 08:32:38;;;;;;;;;;;;;;;;;;5031872;28;985;-74
2022/10/16 08:35:06;;;;;;;;;;;;;;;;;;5047757;28;1989;-74
2022/10/16 08:37:32;;;;;;;;;;;;;;;;;;5032557;28;1044;-74
2022/10/16 08:39:59;;;;;;;;;;;;;;;;;;5032264;28;1305;-74
2022/10/16 08:42:30;;;;;;;;;;;;;;;;;;5031548;28;1072;-74
2022/10/16 08:45:05;;;;;;;;;;;;;;;;;;5031629;28;1430;-74
2022/10/16 08:47:36;;;;;;;;;;;;;;;;;;5031721;28;1123;-74
2022/10/16 08:50:03;;;;;;;;;;;;;;;;;;5031470;28;1313;-74
2022/10/16 08:52:31;;;;;;;;;;;;;;;;;;5030336;28;1289;-75
2022/10/16 08:54:58;;;;;;;;;;;;;;;;;;5031637;28;1989;-74
2022/10/16 08:57:25;;;;;;;;;;;;;;;;;;5031648;28;1108;-74
2022/10/16 08:59:54;;;;;;;;;;;;;;;;;;5013968;28;1398;-73
2022/10/16 09:02:24;;;;;;;;;;;;;;;;;;5031825;28;970;-73
2022/10/16 09:04:54;;;;;;;;;;;;;;;;;;5031516;28;875;-74
2022/10/16 09:07:21;;;;;;;;;;;;;;;;;;5013807;28;1385;-74
2022/10/16 09:09:57;;;;;;;;;;;;;;;;;;5013814;28;1234;-74
2022/10/16 09:12:24;;;;;;;;;;;;;;;;;;5031097;28;648;-74
2022/10/16 09:14:52;;;;;;;;;;;;;;;;;;5029338;28;1914;-74
2022/10/16 09:17:25;;;;;;;;;;;;;;;;;;5026812;28;1160;-74
2022/10/16 09:19:52;;;;;;;;;;;;;;;;;;5011734;28;1311;-74
2022/10/16 09:22:18;;;;;;;;;;;;;;;;;;5011332;28;1105;-74
2022/10/16 09:24:44;;;;;;;;;;;;;;;;;;5011673;28;768;-74
2022/10/16 09:27:12;;;;;;;;;;;;;;;;;;5011836;28;1127;-74
2022/10/16 09:29:38;;;;;;;;;;;;;;;;;;5011560;28;922;-74
2022/10/16 09:32:08;;;;;;;;;;;;;;;;;;5011299;28;1332;-74
2022/10/16 09:34:35;;;;;;;;;;;;;;;;;;5011661;28;1958;-74
2022/10/16 09:37:02;;;;;;;;;;;;;;;;;;5011635;28;899;-74
2022/10/16 09:39:28;;;;;;;;;;;;;;;;;;5011499;28;1075;-74
2022/10/16 09:41:54;;;;;;;;;;;;;;;;;;5011197;28;1359;-74
2022/10/16 09:44:23;;;;;;;;;;;;;;;;;;5003911;28;1502;-75
2022/10/16 09:46:49;;;;;;;;;;;;;;;;;;5046595;28;902;-76
2022/10/16 09:49:20;;;;;;;;;;;;;;;;;;5031237;28;1154;-75
2022/10/16 09:51:47;;;;;;;;;;;;;;;;;;5030752;28;1289;-75
2022/10/16 09:54:14;;;;;;;;;;;;;;;;;;5029774;28;1970;-74
2022/10/16 09:56:41;;;;;;;;;;;;;;;;;;5051683;22;3626;-72
2022/10/16 09:59:09;;;;;;;;;;;;;;;;;;5087744;28;1042;-73
2022/10/16 10:01:38;;;;;;;;;;;;;;;;;;5090850;28;932;-73
2022/10/16 10:04:04;;;;;;;;;;;;;;;;;;5095098;28;1027;-72
2022/10/16 10:06:33;;;;;;;;;;;;;;;;;;5096932;28;1313;-74
2022/10/16 10:09:00;;;;;;;;;;;;;;;;;;5115244;28;1063;-72
2022/10/16 10:11:43;;;;;;;;;;;;;;;;;;5114929;28;1075;-73
2022/10/16 10:14:13;;;;;;;;;;;;;;;;;;5103749;28;1979;-73
2022/10/16 10:16:40;;;;;;;;;;;;;;;;;;5094583;28;1411;-72
2022/10/16 10:19:09;;;;;;;;;;;;;;;;;;5094622;28;1056;-73
2022/10/16 10:21:35;;;;;;;;;;;;;;;;;;5094499;28;787;-72
2022/10/16 10:24:01;;;;;;;;;;;;;;;;;;5076038;28;1792;-73
2022/10/16 10:26:28;;;;;;;;;;;;;;;;;;5094633;28;1316;-72
2022/10/16 10:28:56;;;;;;;;;;;;;;;;;;5094325;28;1055;-72
2022/10/16 10:31:25;;;;;;;;;;;;;;;;;;5094303;28;1114;-72
2022/10/16 10:33:54;;;;;;;;;;;;;;;;;;5094418;28;1891;-73
2022/10/16 10:36:30;;;;;;;;;;;;;;;;;;5076250;28;1298;-72
2022/10/16 10:38:57;;;;;;;;;;;;;;;;;;5094374;28;936;-73
2022/10/16 10:41:38;;;;;;;;;;;;;;;;;;5094345;28;956;-73
2022/10/16 10:44:08;;;;;;;;;;;;;;;;;;5059038;28;1483;-72
2022/10/16 10:46:35;;;;;;;;;;;;;;;;;;5093959;28;1394;-74
2022/10/16 10:49:09;;;;;;;;;;;;;;;;;;5094026;28;787;-73
2022/10/16 10:51:37;;;;;;;;;;;;;;;;;;5093833;28;952;-72
2022/10/16 10:54:06;;;;;;;;;;;;;;;;;;5093801;28;1910;-72
2022/10/16 10:56:40;;;;;;;;;;;;;;;;;;5093662;28;1387;-72
2022/10/16 10:59:14;;;;;;;;;;;;;;;;;;5093971;28;1071;-72
2022/10/16 11:01:42;;;;;;;;;;;;;;;;;;5093377;28;1079;-73
2022/10/16 11:04:16;;;;;;;;;;;;;;;;;;5093756;28;1257;-71
2022/10/16 11:06:43;;;;;;;;;;;;;;;;;;5093643;28;1300;-73
2022/10/16 11:09:10;;;;;;;;;;;;;;;;;;5093744;28;1072;-72
2022/10/16 11:11:37;;;;;;;;;;;;;;;;;;5093439;28;1020;-72
2022/10/16 11:14:04;;;;;;;;;;;;;;;;;;5092726;28;1922;-73
2022/10/16 11:16:31;;;;;;;;;;;;;;;;;;5093613;28;1306;-73
2022/10/16 11:18:58;;;;;;;;;;;;;;;;;;5093422;28;1095;-72
2022/10/16 11:21:25;;;;;;;;;;;;;;;;;;5093265;28;844;-71
2022/10/16 11:23:52;;;;;;;;;;;;;;;;;;5091527;28;1475;-72
2022/10/16 11:26:19;;;;;;;;;;;;;;;;;;5073413;28;1570;-71
2022/10/16 11:28:47;;;;;;;;;;;;;;;;;;5072846;28;949;-72
2022/10/16 11:31:14;;;;;;;;;;;;;;;;;;5073078;28;952;-71
2022/10/16 11:33:42;;;;;;;;;;;;;;;;;;5072975;28;789;-73
2022/10/16 11:36:09;;;;;;;;;;;;;;;;;;5072939;28;1983;-72
2022/10/16 11:38:38;;;;;;;;;;;;;;;;;;5072740;28;1446;-72
2022/10/16 11:41:05;;;;;;;;;;;;;;;;;;5072745;28;1126;-73
2022/10/16 11:43:33;;;;;;;;;;;;;;;;;;5082527;28;1457;-72
2022/10/16 11:46:00;;;;;;;;;;;;;;;;;;5092995;28;882;-73
2022/10/16 11:48:27;;;;;;;;;;;;;;;;;;5092884;28;1384;-74
2022/10/16 11:50:54;;;;;;;;;;;;;;;;;;5092577;28;1071;-73
2022/10/16 11:53:22;;;;;;;;;;;;;;;;;;5092803;28;1071;-75
2022/10/16 11:55:50;;;;;;;;;;;;;;;;;;5092647;28;1967;-74
2022/10/16 11:58:18;;;;;;;;;;;;;;;;;;5092473;28;1398;-74
2022/10/16 12:00:46;;;;;;;;;;;;;;;;;;5092631;28;1404;-73
2022/10/16 12:03:14;;;;;;;;;;;;;;;;;;5092478;28;774;-74
2022/10/16 12:05:47;;;;;;;;;;;;;;;;;;5092403;28;1115;-74
2022/10/16 12:08:13;;;;;;;;;;;;;;;;;;5092770;28;1334;-75
2022/10/16 12:10:40;;;;;;;;;;;;;;;;;;5092530;28;1115;-75
2022/10/16 12:13:22;;;;;;;;;;;;;;;;;;5091922;28;1460;-74
2022/10/16 12:15:49;;;;;;;;;;;;;;;;;;5091305;28;1909;-73
2022/10/16 12:18:22;;;;;;;;;;;;;;;;;;5092871;28;1325;-75
2022/10/16 12:20:58;;;;;;;;;;;;;;;;;;5092277;28;1027;-74
2022/10/16 12:23:25;;;;;;;;;;;;;;;;;;5071657;28;1561;-73
2022/10/16 12:25:54;;;;;;;;;;;;;;;;;;5088020;28;1555;-73
2022/10/16 12:28:21;;;;;;;;;;;;;;;;;;5101024;28;1388;-76
2022/10/16 12:30:54;;;;;;;;;;;;;;;;;;5095333;28;1403;-74
2022/10/16 12:33:20;;;;;;;;;;;;;;;;;;5095795;28;1342;-75
2022/10/16 12:35:46;;;;;;;;;;;;;;;;;;5088950;28;1918;-74
2022/10/16 12:38:15;;;;;;;;;;;;;;;;;;5097405;28;1421;-76
2022/10/16 12:40:41;;;;;;;;;;;;;;;;;;5085920;28;1545;-74
2022/10/16 12:43:25;;;;;;;;;;;;;;;;;;5107628;28;1411;-75
2022/10/16 12:46:01;;;;;;;;;;;;;;;;;;5091342;28;1445;-75
2022/10/16 12:48:28;;;;;;;;;;;;;;;;;;5095400;28;1313;-75
2022/10/16 12:50:54;;;;;;;;;;;;;;;;;;5074115;28;1561;-75
2022/10/16 12:53:20;;;;;;;;;;;;;;;;;;5097072;28;1629;-76
2022/10/16 12:55:49;;;;;;;;;;;;;;;;;;5088020;28;1914;-75
2022/10/16 12:58:22;;;;;;;;;;;;;;;;;;5101073;28;1465;-77
2022/10/16 13:00:50;;;;;;;;;;;;;;;;;;5090218;28;1794;-76
2022/10/16 13:03:27;;;;;;;;;;;;;;;;;;5092597;28;1220;-76
2022/10/16 13:05:56;;;;;;;;;;;;;;;;;;5087292;28;1428;-74
2022/10/16 13:08:26;;;;;;;;;;;;;;;;;;5063839;28;1681;-76
2022/10/16 13:10:55;;;;;;;;;;;;;;;;;;5087964;28;1299;-75
2022/10/16 13:13:24;;;;;;;;;;;;;;;;;;5089954;28;1421;-76
2022/10/16 13:15:53;;;;;;;;;;;;;;;;;;5099746;28;1909;-75
2022/10/16 13:18:21;;;;;;;;;;;;;;;;;;5096604;28;1866;-75
2022/10/16 13:20:55;;;;;;;;;;;;;;;;;;5096977;28;1271;-76
2022/10/16 13:23:24;;;;;;;;;;;;;;;;;;5090450;28;1180;-76
2022/10/16 13:25:54;;;;;;;;;;;;;;;;;;5092445;28;1452;-76
2022/10/16 13:28:21;;;;;;;;;;;;;;;;;;5092680;28;1364;-76
2022/10/16 13:30:51;;;;;;;;;;;;;;;;;;5082318;28;1527;-77
2022/10/16 13:33:18;;;;;;;;;;;;;;;;;;5072405;28;1080;-74
2022/10/16 13:35:49;;;;;;;;;;;;;;;;;;5072366;28;1911;-74
2022/10/16 13:38:17;;;;;;;;;;;;;;;;;;5076119;28;1629;-75
2022/10/16 13:40:50;;;;;;;;;;;;;;;;;;5103989;28;1562;-76
2022/10/16 13:43:17;;;;;;;;;;;;;;;;;;5106006;28;1320;-73
2022/10/16 13:45:52;;;;;;;;;;;;;;;;;;5095158;28;1444;-75
2022/10/16 13:48:19;;;;;;;;;;;;;;;;;;5099059;28;1504;-74
2022/10/16 13:50:45;;;;;;;;;;;;;;;;;;5098102;28;1336;-76
2022/10/16 13:53:13;;;;;;;;;;;;;;;;;;5091996;28;1130;-76
2022/10/16 13:55:40;;;;;;;;;;;;;;;;;;5100460;28;1974;-76
2022/10/16 13:58:08;;;;;;;;;;;;;;;;;;5096587;28;1423;-76
2022/10/16 14:00:35;;;;;;;;;;;;;;;;;;5098852;28;1486;-75
2022/10/16 14:03:02;;;;;;;;;;;;;;;;;;5095385;28;1434;-75
2022/10/16 14:05:28;;;;;;;;;;;;;;;;;;5106929;28;1215;-75
2022/10/16 14:07:54;;;;;;;;;;;;;;;;;;5113318;28;1362;-75
2022/10/16 14:10:21;;;;;;;;;;;;;;;;;;5097260;28;1378;-75
2022/10/16 14:12:55;;;;;;;;;;;;;;;;;;5102460;28;1389;-75
2022/10/16 14:15:22;;;;;;;;;;;;;;;;;;5095283;28;1905;-74
2022/10/16 14:17:50;;;;;;;;;;;;;;;;;;5096575;28;1479;-74
2022/10/16 14:20:16;;;;;;;;;;;;;;;;;;5088569;28;1290;-76
2022/10/16 14:22:43;;;;;;;;;;;;;;;;;;5114887;28;1131;-76
2022/10/16 14:25:27;;;;;;;;;;;;;;;;;;5083431;28;1428;-73
2022/10/16 14:28:01;;;;;;;;;;;;;;;;;;5088949;28;1486;-73
2022/10/16 14:30:28;;;;;;;;;;;;;;;;;;5096808;28;1401;-75
2022/10/16 14:32:55;;;;;;;;;;;;;;;;;;5094846;28;1498;-76
2022/10/16 14:35:28;;;;;;;;;;;;;;;;;;5074582;28;1909;-74
2022/10/16 14:37:55;;;;;;;;;;;;;;;;;;5090804;28;1407;-74
2022/10/16 14:40:21;;;;;;;;;;;;;;;;;;5092976;28;1569;-74
2022/10/16 14:42:48;;;;;;;;;;;;;;;;;;5099028;28;1146;-74
2022/10/16 14:45:16;;;;;;;;;;;;;;;;;;5095595;28;937;-75
2022/10/16 14:47:47;;;;;;;;;;;;;;;;;;5091909;28;1404;-75
2022/10/16 14:50:13;;;;;;;;;;;;;;;;;;5093732;28;1051;-75
2022/10/16 14:52:39;;;;;;;;;;;;;;;;;;5100437;28;1379;-75
2022/10/16 14:55:06;;;;;;;;;;;;;;;;;;5087996;28;1981;-76
2022/10/16 14:57:33;;;;;;;;;;;;;;;;;;5101522;28;1509;-75
2022/10/16 14:59:59;;;;;;;;;;;;;;;;;;5108983;28;1227;-74
2022/10/16 15:02:28;;;;;;;;;;;;;;;;;;5106852;28;1363;-76
2022/10/16 15:04:54;;;;;;;;;;;;;;;;;;5099145;28;1196;-75
2022/10/16 15:07:21;;;;;;;;;;;;;;;;;;5073095;28;1298;-76
2022/10/16 15:09:47;;;;;;;;;;;;;;;;;;5056836;28;1036;-75
2022/10/16 15:12:13;;;;;;;;;;;;;;;;;;5094256;28;1399;-76
2022/10/16 15:14:39;;;;;;;;;;;;;;;;;;5113791;28;1149;-75
2022/10/16 15:17:05;;;;;;;;;;;;;;;;;;5114967;28;1963;-75
2022/10/16 15:19:34;;;;;;;;;;;;;;;;;;5107143;28;1442;-75
2022/10/16 15:22:00;;;;;;;;;;;;;;;;;;5111869;28;1227;-75
2022/10/16 15:24:26;;;;;;;;;;;;;;;;;;5104618;28;1436;-75
2022/10/16 15:26:52;;;;;;;;;;;;;;;;;;5096027;28;1677;-74
2022/10/16 15:29:18;;;;;;;;;;;;;;;;;;5099565;28;1482;-75
2022/10/16 15:31:47;;;;;;;;;;;;;;;;;;5094876;28;1180;-75
2022/10/16 15:34:13;;;;;;;;;;;;;;;;;;5078324;28;1032;-76
2022/10/16 15:36:41;;;;;;;;;;;;;;;;;;5079267;28;1918;-75
2022/10/16 15:39:10;;;;;;;;;;;;;;;;;;5096073;28;1538;-76
2022/10/16 15:41:37;;;;;;;;;;;;;;;;;;5095679;28;1335;-75
2022/10/16 15:44:03;;;;;;;;;;;;;;;;;;5091460;28;1351;-76
2022/10/16 15:46:30;;;;;;;;;;;;;;;;;;5104531;28;1467;-76
2022/10/16 15:48:57;;;;;;;;;;;;;;;;;;5107980;28;1482;-75
2022/10/16 15:51:23;;;;;;;;;;;;;;;;;;5102514;28;1529;-75
2022/10/16 15:53:52;;;;;;;;;;;;;;;;;;5089370;28;1479;-76
2022/10/16 15:56:18;;;;;;;;;;;;;;;;;;5108203;28;1914;-77
2022/10/16 15:58:45;;;;;;;;;;;;;;;;;;5091829;28;1115;-76
2022/10/16 16:01:11;;;;;;;;;;;;;;;;;;5093474;28;1618;-75
2022/10/16 16:03:40;;;;;;;;;;;;;;;;;;5091730;28;1549;-76
2022/10/16 16:06:06;;;;;;;;;;;;;;;;;;5098933;28;1347;-76
2022/10/16 16:08:33;;;;;;;;;;;;;;;;;;5076791;28;1428;-76
2022/10/16 16:11:01;;;;;;;;;;;;;;;;;;5101629;28;1154;-76
2022/10/16 16:13:27;;;;;;;;;;;;;;;;;;5104391;28;1302;-76
2022/10/16 16:15:53;;;;;;;;;;;;;;;;;;5090519;28;1969;-76
2022/10/16 16:18:19;;;;;;;;;;;;;;;;;;5099189;28;1565;-77
2022/10/16 16:20:46;;;;;;;;;;;;;;;;;;5100345;28;1351;-76
2022/10/16 16:23:12;;;;;;;;;;;;;;;;;;5088522;28;1570;-76
2022/10/16 16:25:38;;;;;;;;;;;;;;;;;;5094923;28;1406;-77
2022/10/16 16:28:06;;;;;;;;;;;;;;;;;;5072157;28;1453;-75
2022/10/16 16:30:33;;;;;;;;;;;;;;;;;;5094228;28;1374;-76
2022/10/16 16:32:59;;;;;;;;;;;;;;;;;;5090722;28;1267;-76
2022/10/16 16:35:25;;;;;;;;;;;;;;;;;;5089210;28;1430;-76
2022/10/16 16:37:51;;;;;;;;;;;;;;;;;;5088486;28;1976;-75
2022/10/16 16:40:18;;;;;;;;;;;;;;;;;;5090729;28;1435;-78
2022/10/16 16:42:44;;;;;;;;;;;;;;;;;;5088276;28;1360;-76
2022/10/16 16:45:11;;;;;;;;;;;;;;;;;;5090752;28;1403;-74
2022/10/16 16:47:39;;;;;;;;;;;;;;;;;;5075872;28;1374;-75
2022/10/16 16:50:06;;;;;;;;;;;;;;;;;;5092603;28;1219;-76
2022/10/16 16:52:32;;;;;;;;;;;;;;;;;;5086924;28;1383;-76
2022/10/16 16:54:59;;;;;;;;;;;;;;;;;;5089000;28;1391;-76
2022/10/16 16:57:25;;;;;;;;;;;;;;;;;;5090715;28;1906;-76
2022/10/16 16:59:51;;;;;;;;;;;;;;;;;;5090656;28;1522;-75
2022/10/16 17:02:19;;;;;;;;;;;;;;;;;;5073569;28;1234;-75
2022/10/16 17:04:45;;;;;;;;;;;;;;;;;;5089145;28;1505;-75
2022/10/16 17:07:11;;;;;;;;;;;;;;;;;;5098979;28;1505;-76
2022/10/16 17:09:38;;;;;;;;;;;;;;;;;;5102639;28;1120;-76